Sparta, NC (28675)

7:45 AM EST on February 23, 2017 (GMT -0500)
stone ridge | | Change Station
Active Advisory: Dense Fog Advisory

Elev 3009 ft 36.50 °N, 81.14 °W | Updated 13 seconds ago

Overcast
Overcast
47.7 °F
Feels Like 48 °F
N
0.0
Wind Variable Wind from West
Gusts 0.0 mph

Today
High -- | Low -- °F
--% Chance of Precip.
Yesterday
High -- | Low -- °F
Precip. -- in
Pressure 29.97 in
Visibility 4.0 miles
Clouds Scattered Clouds 1200 ft
Windchill 48 °F
Dew Point 47 °F
Humidity 98%
Rainfall 0.00 in
Snow Depth Not available.
7:02 AM 6:13 PM
Waning Crescent, 10% visible
METAR KGEV 231240Z AUTO 00000KT 4SM BR SCT012 08/08 A2997 RMK AO2 T00780076
Pressure 29.97 in
Visibility 4.0 miles
Clouds Scattered Clouds 1200 ft
Windchill 48 °F
Dew Point 47 °F
Humidity 98%
Rainfall 0.00 in
Snow Depth Not available.
7:02 AM 6:13 PM
Waning Crescent, 10% visible
METAR KGEV 231240Z AUTO 00000KT 4SM BR SCT012 08/08 A2997 RMK AO2 T00780076

Get Your Daily Forecast Email!

Thanks for signing up!

Be on the lookout for a verification email in your inbox.

You'll start receiving the daily forecast at 8 AM.

×

10-Day Weather Forecast

Almanac

Astronomy

Feb. 23, 2017 Rise Set
Actual Time
Civil Twilight
Nautical Twilight
Astronomical Twilight
Moon
Length of Visible Light
Length of Day
Tomorrow will be .
, % of the Moon is Illuminated

Today's Extremes

State Highs State Lows

Community

WunderPhotos

Upload Photos

1,962,540 photos uploaded!

WunderBlog® & News

Nearby

Air Quality

  Air Quality AQ Index Pollutant
Not available.

Snow Depth

Station Depth Elevation

Earthquake Activity

City Distance Mag. Time & Date
Minimum magnitude displayed is 2.5.

Coastal Water Temperatures

Place Temperature

Stations

Nearby Weather Stations

Station Location Temp. Windchill Dew Point Humidity Wind Precip. Elev Updated Type
                   

Watches & Warnings

Dense Fog Advisory
Issued: 6:41 AM EST Feb. 23, 2017 – National Weather Service

... Dense fog advisory remains in effect until 10 am EST this
morning...

* locations... from the New River and Greenbrier valleys eastward
into the Piedmont of Virginia and North Carolina.

* Hazards... dense fog.

* Visibilities... a quarter mile or less.

* Timing... this morning.

* Impacts... poor visibility.

Precautionary/preparedness actions...

A dense fog advisory means visibilities will frequently be
reduced to less than one quarter mile. If driving... slow down...
use your low beam headlights... and leave plenty of distance ahead
of you.